TimeCST,TemperatureF,Dew PointF,Humidity,Sea Level PressureIn,VisibilityMPH,Wind Direction,Wind SpeedMPH,Gust SpeedMPH,PrecipitationIn,Events,Conditions,WindDirDegrees,DateUTC
12:53 AM,12.9,5.0,71,30.18,10.0,NW,8.1,-,N/A,,Clear,310,2013-01-01 06:53:00
1:45 AM,12.2,3.2,67,30.14,10.0,NW,8.1,-,N/A,,Mostly Cloudy,310,2013-01-01 07:45:00
1:53 AM,12.9,3.9,67,30.19,10.0,NW,8.1,-,N/A,,Overcast,320,2013-01-01 07:53:00
2:37 AM,12.2,3.2,67,30.16,10.0,NW,9.2,-,N/A,,Partly Cloudy,310,2013-01-01 08:37:00
2:53 AM,10.9,3.0,70,30.19,10.0,NW,10.4,-,N/A,,Partly Cloudy,310,2013-01-01 08:53:00
3:53 AM,10.0,3.0,73,30.20,10.0,WNW,8.1,-,N/A,,Clear,300,2013-01-01 09:53:00
4:53 AM,9.0,1.9,73,30.20,10.0,WNW,8.1,-,N/A,,Clear,300,2013-01-01 10:53:00
5:53 AM,8.1,1.0,73,30.23,10.0,NW,6.9,-,N/A,,Clear,310,2013-01-01 11:53:00
6:53 AM,6.1,1.0,80,30.25,10.0,WNW,5.8,-,N/A,,Clear,300,2013-01-01 12:53:00
7:53 AM,6.1,1.0,80,30.26,10.0,WNW,6.9,-,N/A,,Clear,300,2013-01-01 13:53:00
8:53 AM,9.0,1.0,70,30.27,10.0,NW,9.2,-,N/A,,Clear,310,2013-01-01 14:53:00
9:53 AM,12.9,3.0,65,30.25,10.0,NNW,10.4,-,N/A,,Clear,330,2013-01-01 15:53:00
10:53 AM,16.0,3.0,57,30.23,10.0,NNW,10.4,-,N/A,,Clear,330,2013-01-01 16:53:00
11:53 AM,16.0,3.0,57,30.23,10.0,NNW,5.8,-,N/A,,Clear,330,2013-01-01 17:53:00
12:53 PM,16.0,3.0,57,30.22,10.0,West,9.2,-,N/A,,Clear,280,2013-01-01 18:53:00
1:53 PM,17.1,3.0,54,30.21,10.0,West,10.4,-,N/A,,Clear,270,2013-01-01 19:53:00
2:53 PM,17.1,1.9,52,30.21,10.0,WNW,11.5,-,N/A,,Clear,290,2013-01-01 20:53:00
3:53 PM,15.1,3.0,59,30.20,10.0,West,10.4,-,N/A,,Clear,280,2013-01-01 21:53:00
4:53 PM,12.9,1.9,62,30.22,10.0,WSW,4.6,-,N/A,,Clear,250,2013-01-01 22:53:00
5:53 PM,12.0,1.0,61,30.21,10.0,West,4.6,-,N/A,,Clear,280,2013-01-01 23:53:00
6:53 PM,10.0,1.0,67,30.22,10.0,West,6.9,-,N/A,,Clear,260,2013-01-02 00:53:00
7:53 PM,10.0,1.0,67,30.22,10.0,West,8.1,-,N/A,,Clear,260,2013-01-02 01:53:00
8:53 PM,9.0,1.0,70,30.20,10.0,West,6.9,-,N/A,,Clear,260,2013-01-02 02:53:00
9:53 PM,8.1,-0.0,70,30.20,10.0,West,4.6,-,N/A,,Clear,260,2013-01-02 03:53:00
10:53 PM,7.0,-0.0,73,30.20,10.0,West,4.6,-,N/A,,Clear,260,2013-01-02 04:53:00
11:53 PM,7.0,-0.0,73,30.19,10.0,WSW,6.9,-,N/A,,Clear,250,2013-01-02 05:53:00